Puffinus — HBY4826 — position and weather

sailwx.info

Track history (hours):
 
Tides and Currents Weather Stations Pressure Air Temp Water Temp Dewpoint Dewpoint Depression Visibility Wind Speed Wind Dir Waves Ship Positions

Puffinus

Last reported at 2018-Apr-22 19:06 UTC. Time now 2018-Jun-22 16:58 UTC.
Position N 36°57' W 008°34'.
Warning: this ship's position is months out of date.

Type: Sailing vessel. MMSI: 269107220.

Date/timePositionNaut miles runAvg speedWind from/ knotsBaromVisibWave heightAir tempDewpointWater temp
2018-Apr-22 19:06N 36°57' W 008°34'1 6.0
2018-Apr-22 19:00N 36°57' W 008°35'3 6.0
2018-Apr-22 18:30N 36°60' W 008°36'3 6.0
2018-Apr-22 17:58N 37°03' W 008°38'3 6.2
2018-Apr-22 17:29N 37°06' W 008°40'1 0.2
2018-Apr-22 11:46N 37°06' W 008°40'0 0.0
2018-Apr-21 20:52N 37°06' W 008°40'2 4.6
2018-Apr-21 20:30N 37°05' W 008°39'4 6.6
2018-Apr-21 19:58N 37°02' W 008°37'3 5.8
2018-Apr-21 19:30N 36°60' W 008°35'3 4.7
2018-Apr-21 18:55N 37°02' W 008°37'2 5.6
2018-Apr-21 18:29N 37°04' W 008°39'3 5.3
2018-Apr-21 18:00N 37°06' W 008°40'0 0.2
2018-Apr-21 17:20N 37°06' W 008°40'0 0.0
2018-Apr-21 16:50N 37°06' W 008°40'0 0.0
2018-Apr-21 14:48N 37°06' W 008°40'0 0.0
2018-Apr-21 12:58N 37°06' W 008°40'0 0.0
2018-Apr-21 12:13N 37°06' W 008°40'  
Track history (hours):
 
Tides and Currents Weather Stations Pressure Air Temp Water Temp Dewpoint Dewpoint Depression Visibility Wind Speed Wind Dir Waves Ship Positions

Puffinus

Last reported at 2018-Apr-22 19:06 UTC. Time now 2018-Jun-22 16:58 UTC.
Position N 36°57' W 008°34'.
Warning: this ship's position is months out of date.

Type: Sailing vessel. MMSI: 269107220.

Date/timePositionNaut miles runAvg speedWind from/ knotsBaromVisibWave heightAir tempDewpointWater temp
2018-Apr-22 19:06N 36°57' W 008°34'1 6.0
2018-Apr-22 19:00N 36°57' W 008°35'3 6.0
2018-Apr-22 18:30N 36°60' W 008°36'3 6.0
2018-Apr-22 17:58N 37°03' W 008°38'3 6.2
2018-Apr-22 17:29N 37°06' W 008°40'1 0.2
2018-Apr-22 11:46N 37°06' W 008°40'0 0.0
2018-Apr-21 20:52N 37°06' W 008°40'2 4.6
2018-Apr-21 20:30N 37°05' W 008°39'4 6.6
2018-Apr-21 19:58N 37°02' W 008°37'3 5.8
2018-Apr-21 19:30N 36°60' W 008°35'3 4.7
2018-Apr-21 18:55N 37°02' W 008°37'2 5.6
2018-Apr-21 18:29N 37°04' W 008°39'3 5.3
2018-Apr-21 18:00N 37°06' W 008°40'0 0.2
2018-Apr-21 17:20N 37°06' W 008°40'0 0.0
2018-Apr-21 16:50N 37°06' W 008°40'0 0.0
2018-Apr-21 14:48N 37°06' W 008°40'0 0.0
2018-Apr-21 12:58N 37°06' W 008°40'0 0.0
2018-Apr-21 12:13N 37°06' W 008°40'  

Dump ship's entire track history